Time;durP1;ratioP1;P1;durP2;ratioP2;P2;SDS_P1;SDS_P2;PMS_P1;PMS_P2;Temp;Humidity;BMP_temperature;BMP_pressure;BME280_temperature;BME280_humidity;BME280_pressure;Samples;Min_cycle;Max_cycle;Signal;HPM_P1;HPM_P2
2021/11/13 00:02:23;;;;;;;45.52;29.52;;;;;;;6.35;73.27;101699.29;1758013;81;21394;-75
2021/11/13 00:04:50;;;;;;;39.85;29.30;;;;;;;6.34;73.23;101698.89;1757931;80;20904;-75
2021/11/13 00:07:18;;;;;;;43.25;29.67;;;;;;;6.33;73.04;101702.38;1758014;80;20983;-76
2021/11/13 00:09:45;;;;;;;37.70;28.52;;;;;;;6.30;72.99;101699.86;1757804;80;21973;-75
2021/11/13 00:12:14;;;;;;;41.37;26.73;;;;;;;6.28;73.07;101697.28;1757870;81;20885;-75
2021/11/13 00:14:44;;;;;;;37.33;27.20;;;;;;;6.26;73.22;101699.06;1757885;81;21346;-75
2021/11/13 00:17:12;;;;;;;41.02;30.48;;;;;;;6.25;73.17;101703.00;1757859;81;20853;-74
2021/11/13 00:19:40;;;;;;;41.55;29.85;;;;;;;6.21;73.43;101708.75;1757898;81;21418;-73
2021/11/13 00:22:08;;;;;;;43.55;28.90;;;;;;;6.25;73.55;101706.91;1757859;81;21132;-74
2021/11/13 00:24:36;;;;;;;40.17;28.23;;;;;;;6.26;73.46;101704.27;1758000;80;20837;-74
2021/11/13 00:27:06;;;;;;;44.03;28.05;;;;;;;6.29;73.34;101713.34;1757955;80;20964;-73
2021/11/13 00:29:34;;;;;;;39.55;28.27;;;;;;;6.27;73.30;101706.42;1757813;81;20939;-73
2021/11/13 00:32:03;;;;;;;41.45;28.35;;;;;;;6.23;73.27;101706.52;1753918;80;20884;-75
2021/11/13 00:34:31;;;;;;;39.20;26.95;;;;;;;6.20;73.34;101696.19;1744804;81;21987;-75
2021/11/13 00:36:58;;;;;;;36.53;27.37;;;;;;;6.21;73.33;101698.33;1744480;81;20976;-75
2021/11/13 00:39:25;;;;;;;37.35;24.67;;;;;;;6.21;73.36;101699.63;1744591;82;21087;-75
2021/11/13 00:41:52;;;;;;;53.45;32.10;;;;;;;6.23;73.44;101695.25;1744509;81;21339;-74
2021/11/13 00:46:48;;;;;;;39.95;27.73;;;;;;;6.34;73.49;101702.80;1854479;77;22570;-74
2021/11/13 00:49:17;;;;;;;37.63;27.60;;;;;;;6.33;73.34;101703.67;1822230;78;21502;-75
2021/11/13 00:51:45;;;;;;;41.10;26.85;;;;;;;6.35;73.17;101702.74;1795124;78;21171;-75
2021/11/13 00:54:12;;;;;;;40.05;27.00;;;;;;;6.35;72.99;101704.50;1789875;80;20896;-75
2021/11/13 00:56:39;;;;;;;35.10;26.23;;;;;;;6.35;72.89;101703.20;1789820;79;21278;-75
2021/11/13 00:59:07;;;;;;;33.70;25.52;;;;;;;6.35;72.76;101704.50;1789700;80;20943;-75
2021/11/13 01:01:35;;;;;;;39.15;26.57;;;;;;;6.33;72.66;101709.73;1789905;80;20879;-74
2021/11/13 01:04:02;;;;;;;34.90;25.23;;;;;;;6.32;72.79;101705.89;1790183;79;21120;-75
2021/11/13 01:06:30;;;;;;;32.35;22.90;;;;;;;6.32;72.80;101709.34;1789673;79;21337;-74
2021/11/13 01:08:59;;;;;;;33.28;24.18;;;;;;;6.34;72.88;101717.13;1789764;80;20934;-74
2021/11/13 01:11:28;;;;;;;43.30;26.95;;;;;;;6.36;72.84;101710.14;1789618;80;20927;-74
2021/11/13 01:13:55;;;;;;;36.58;26.10;;;;;;;6.37;72.59;101715.28;1789957;79;20974;-75
2021/11/13 01:16:27;;;;;;;37.38;26.55;;;;;;;6.33;72.40;101714.09;1789825;80;20883;-74
2021/11/13 01:18:55;;;;;;;34.70;24.98;;;;;;;6.27;72.52;101711.22;1789998;79;20919;-75
2021/11/13 01:21:22;;;;;;;37.65;25.10;;;;;;;6.25;72.57;101716.03;1789719;80;21377;-75
2021/11/13 01:23:50;;;;;;;40.12;27.35;;;;;;;6.23;72.48;101719.54;1789595;80;20895;-74
2021/11/13 01:26:20;;;;;;;32.58;23.22;;;;;;;6.20;72.53;101720.05;1789611;79;21384;-74
2021/11/13 01:28:47;;;;;;;35.23;24.37;;;;;;;6.18;72.71;101720.52;1789776;79;21132;-74
2021/11/13 01:31:15;;;;;;;33.45;23.60;;;;;;;6.17;72.81;101723.59;1789642;79;20880;-74
2021/11/13 01:33:45;;;;;;;39.90;24.60;;;;;;;6.21;72.96;101723.08;1789643;80;20919;-73
2021/11/13 01:36:13;;;;;;;32.03;22.58;;;;;;;6.23;72.92;101722.14;1789777;79;20872;-73
2021/11/13 01:38:42;;;;;;;38.28;24.45;;;;;;;6.25;72.78;101720.81;1789776;80;20884;-73
2021/11/13 01:41:09;;;;;;;38.65;24.35;;;;;;;6.26;72.71;101721.20;1789843;80;21725;-75
2021/11/13 01:43:38;;;;;;;32.45;24.15;;;;;;;6.26;72.64;101719.06;1789659;80;20967;-73
2021/11/13 01:46:07;;;;;;;32.42;23.85;;;;;;;6.26;72.55;101716.00;1793132;80;20903;-74
2021/11/13 01:48:34;;;;;;;31.95;23.80;;;;;;;6.25;72.47;101716.03;1795449;78;20986;-75
2021/11/13 01:51:01;;;;;;;37.65;24.40;;;;;;;6.22;72.28;101712.63;1795385;80;21392;-74
2021/11/13 01:53:29;;;;;;;38.40;24.90;;;;;;;6.17;72.17;101722.28;1795406;80;21157;-74
2021/11/13 01:55:56;;;;;;;35.15;25.65;;;;;;;6.10;72.19;101726.38;1794962;80;21029;-75
2021/11/13 01:58:24;;;;;;;33.48;24.25;;;;;;;6.05;72.19;101724.31;1794638;80;21021;-76
2021/11/13 02:00:54;;;;;;;32.88;22.15;;;;;;;5.99;72.30;101727.93;1794692;79;21360;-75
2021/11/13 02:03:21;;;;;;;36.83;22.98;;;;;;;5.94;72.36;101729.34;1794997;79;20947;-76
2021/11/13 02:05:50;;;;;;;33.00;23.12;;;;;;;5.89;72.46;101731.59;1794715;80;21165;-75
2021/11/13 02:08:18;;;;;;;37.75;26.12;;;;;;;5.85;72.38;101726.92;1795017;80;20950;-74
2021/11/13 02:10:46;;;;;;;32.05;23.73;;;;;;;5.80;72.39;101730.05;1794815;79;21013;-75
2021/11/13 02:13:12;;;;;;;33.15;24.63;;;;;;;5.72;72.27;101727.63;1794949;79;20891;-75
2021/11/13 02:15:41;;;;;;;34.58;24.47;;;;;;;5.64;72.26;101728.23;1795015;80;20931;-75
2021/11/13 02:18:08;;;;;;;38.98;25.50;;;;;;;5.53;72.27;101725.85;1794717;80;21136;-74
2021/11/13 02:20:43;;;;;;;35.52;24.98;;;;;;;5.44;72.61;101733.00;1794695;79;21021;-76
2021/11/13 02:23:21;;;;;;;38.00;25.95;;;;;;;5.34;72.87;101734.50;1795080;80;20883;-75
2021/11/13 02:25:49;;;;;;;37.10;24.25;;;;;;;5.26;73.13;101740.29;1794935;80;21495;-74
2021/11/13 02:28:18;;;;;;;37.00;25.08;;;;;;;5.21;73.36;101744.73;1795052;80;20911;-75
2021/11/13 02:30:47;;;;;;;38.17;26.70;;;;;;;5.16;73.56;101744.83;1794691;79;21151;-74
2021/11/13 02:33:14;;;;;;;39.08;25.80;;;;;;;5.11;73.67;101744.48;1794883;79;20910;-74
2021/11/13 02:35:41;;;;;;;35.33;25.68;;;;;;;5.07;73.86;101745.00;1794844;79;20966;-74
2021/11/13 02:38:36;;;;;;;41.20;28.83;;;;;;;5.01;73.70;101750.31;1794860;79;21029;-74
2021/11/13 02:41:08;;;;;;;38.17;27.02;;;;;;;4.91;73.78;101747.45;1794973;80;21837;-74
2021/11/13 02:43:37;;;;;;;35.63;24.90;;;;;;;4.82;73.91;101756.27;1794798;80;21142;-74
2021/11/13 02:46:08;;;;;;;32.25;23.87;;;;;;;4.74;74.12;101760.77;1794532;80;20927;-75
2021/11/13 02:48:38;;;;;;;35.03;24.25;;;;;;;4.67;74.36;101764.33;1794613;79;20950;-75
2021/11/13 02:51:05;;;;;;;41.50;25.75;;;;;;;4.58;74.67;101770.56;1794621;79;21006;-75
2021/11/13 02:53:32;;;;;;;35.17;24.98;;;;;;;4.50;75.06;101771.97;1794737;80;20883;-74
2021/11/13 02:56:02;;;;;;;39.83;27.30;;;;;;;4.43;75.54;101767.77;1794810;79;21970;-73
2021/11/13 02:58:29;;;;;;;39.42;27.40;;;;;;;4.38;75.88;101777.80;1794770;80;20868;-76
2021/11/13 03:01:00;;;;;;;38.30;27.17;;;;;;;4.32;75.96;101777.47;1794758;79;20943;-74
2021/11/13 03:03:27;;;;;;;37.20;27.30;;;;;;;4.30;75.71;101780.53;1794725;79;20950;-75
2021/11/13 03:05:57;;;;;;;40.78;26.85;;;;;;;4.24;75.40;101775.42;1794725;79;20883;-74
2021/11/13 03:08:30;;;;;;;41.77;27.65;;;;;;;4.17;75.04;101773.80;1794809;79;21170;-74
2021/11/13 03:11:04;;;;;;;42.40;26.17;;;;;;;4.08;74.96;101769.59;1794944;79;20966;-74
2021/11/13 03:13:32;;;;;;;42.50;28.92;;;;;;;4.00;75.18;101772.28;1794848;80;20887;-75
2021/11/13 03:16:00;;;;;;;38.83;25.95;;;;;;;3.91;75.14;101779.79;1794684;79;20983;-74
2021/11/13 03:18:27;;;;;;;38.20;26.40;;;;;;;3.82;75.03;101782.92;1794699;79;20927;-74
2021/11/13 03:20:54;;;;;;;38.25;27.07;;;;;;;3.76;75.30;101780.41;1794563;79;21903;-74
2021/11/13 03:23:21;;;;;;;41.80;27.55;;;;;;;3.71;75.36;101784.36;1794528;79;21095;-75
2021/11/13 03:26:00;;;;;;;42.40;29.35;;;;;;;3.66;75.35;101789.61;1794816;79;21397;-75
2021/11/13 03:28:28;;;;;;;36.58;26.15;;;;;;;3.63;75.32;101795.29;1794662;80;21424;-73
2021/11/13 03:31:01;;;;;;;45.35;29.67;;;;;;;3.56;75.28;101800.98;1794747;80;21476;-73
2021/11/13 03:33:25;;;;;;;36.90;26.68;;;;;;;3.48;75.11;101803.66;1794360;80;21218;-73
2021/11/13 03:35:52;;;;;;;41.48;28.73;;;;;;;3.41;74.97;101798.57;1794712;80;20875;-74
2021/11/13 03:38:18;;;;;;;48.35;31.15;;;;;;;3.32;75.04;101798.23;1794835;80;20978;-74
2021/11/13 03:40:47;;;;;;;75.37;42.90;;;;;;;3.23;75.26;101799.19;1794589;80;21433;-76
2021/11/13 03:43:16;;;;;;;68.28;42.40;;;;;;;3.18;75.59;101797.09;1794579;80;21832;-75
2021/11/13 03:45:46;;;;;;;62.62;38.40;;;;;;;3.13;75.87;101802.73;1794531;79;20951;-75
2021/11/13 03:48:13;;;;;;;54.27;32.78;;;;;;;3.08;76.24;101801.93;1794851;79;20884;-76
2021/11/13 03:50:40;;;;;;;97.22;57.60;;;;;;;3.03;76.75;101806.31;1794656;80;20955;-74
2021/11/13 03:53:07;;;;;;;107.92;62.98;;;;;;;2.97;76.34;101809.80;1795110;79;20939;-74
2021/11/13 03:55:35;;;;;;;120.25;67.08;;;;;;;2.92;76.24;101809.44;1794698;79;21442;-75
2021/11/13 03:58:03;;;;;;;113.80;66.17;;;;;;;2.89;76.25;101809.00;1795058;79;21464;-75
2021/11/13 04:00:31;;;;;;;109.63;66.12;;;;;;;2.85;75.99;101812.08;1794664;79;20884;-75
2021/11/13 04:02:58;;;;;;;102.07;61.95;;;;;;;2.77;75.64;101813.02;1794833;79;20915;-75
2021/11/13 04:05:25;;;;;;;94.07;53.92;;;;;;;2.68;75.83;101814.80;1794584;79;20911;-74
2021/11/13 04:07:52;;;;;;;88.47;51.33;;;;;;;2.63;75.68;101818.31;1794939;79;20915;-76
2021/11/13 04:10:20;;;;;;;81.95;47.38;;;;;;;2.58;75.59;101824.82;1794521;79;20916;-75
2021/11/13 04:12:47;;;;;;;63.58;37.60;;;;;;;2.52;75.60;101815.80;1794882;79;21401;-74
2021/11/13 04:15:16;;;;;;;62.08;39.33;;;;;;;2.45;75.52;101820.16;1794703;79;20950;-74
2021/11/13 04:17:46;;;;;;;65.57;38.85;;;;;;;2.40;76.09;101823.63;1794631;80;20966;-74
2021/11/13 04:20:13;;;;;;;53.48;34.75;;;;;;;2.38;76.33;101826.25;1794753;80;21384;-75
2021/11/13 04:22:41;;;;;;;62.03;39.53;;;;;;;2.36;76.46;101828.44;1794646;79;20868;-74
2021/11/13 04:25:08;;;;;;;54.88;34.10;;;;;;;2.33;76.62;101828.44;1794509;79;21007;-74
2021/11/13 04:27:35;;;;;;;63.90;36.98;;;;;;;2.27;76.29;101832.78;1794678;79;20982;-74
2021/11/13 04:30:06;;;;;;;54.63;34.70;;;;;;;2.23;75.97;101840.58;1794565;79;20923;-74
2021/11/13 04:32:37;;;;;;;54.45;35.83;;;;;;;2.15;75.84;101840.61;1794495;80;20876;-74
2021/11/13 04:35:44;;;;;;;49.90;32.48;;;;;;;2.09;75.89;101841.95;1794585;79;21156;-74
2021/11/13 04:37:55;;;;;;;54.80;35.80;;;;;;;2.05;76.13;101837.66;1789728;80;21109;-74
2021/11/13 04:40:26;;;;;;;48.45;33.18;;;;;;;2.03;76.55;101841.54;1794758;80;20844;-75
2021/11/13 04:42:53;;;;;;;52.98;33.83;;;;;;;2.03;76.65;101847.16;1794884;80;20935;-73
2021/11/13 04:45:20;;;;;;;53.70;31.57;;;;;;;1.99;76.47;101848.88;1794585;80;20970;-74
2021/11/13 04:47:49;;;;;;;51.00;31.42;;;;;;;1.95;76.09;101849.76;1794663;80;22031;-75
2021/11/13 04:50:19;;;;;;;44.90;28.57;;;;;;;1.89;75.99;101852.39;1794874;79;20967;-73
2021/11/13 04:52:46;;;;;;;50.67;29.77;;;;;;;1.84;76.15;101851.09;1794674;80;20887;-75
2021/11/13 04:55:13;;;;;;;43.83;28.80;;;;;;;1.80;76.43;101853.29;1794534;80;20959;-74
2021/11/13 04:57:43;;;;;;;43.80;29.67;;;;;;;1.80;76.61;101858.88;1794657;79;20848;-73
2021/11/13 05:00:16;;;;;;;55.30;31.82;;;;;;;1.81;76.58;101856.73;1793894;80;22335;-74
2021/11/13 05:02:42;;;;;;;45.15;29.35;;;;;;;1.80;76.47;101858.88;1794530;80;20935;-77
2021/11/13 05:05:09;;;;;;;49.08;29.65;;;;;;;1.77;76.39;101867.50;1794458;80;21510;-74
2021/11/13 05:07:37;;;;;;;45.00;30.05;;;;;;;1.77;76.38;101871.38;1794652;79;20911;-76
2021/11/13 05:10:05;;;;;;;49.73;27.10;;;;;;;1.77;76.37;101875.70;1794761;79;20891;-76
2021/11/13 05:12:35;;;;;;;49.85;28.62;;;;;;;1.76;76.35;101883.05;1794560;80;20959;-76
2021/11/13 05:15:04;;;;;;;47.73;30.00;;;;;;;1.74;76.46;101884.34;1794453;79;20933;-76
2021/11/13 05:17:34;;;;;;;57.38;30.43;;;;;;;1.75;76.45;101890.36;1794576;80;20844;-75
2021/11/13 05:20:07;;;;;;;63.70;32.25;;;;;;;1.76;76.31;101892.10;1794083;79;20852;-76
2021/11/13 05:22:36;;;;;;;53.30;32.05;;;;;;;1.74;76.11;101895.13;1794759;80;20888;-75
2021/11/13 05:25:04;;;;;;;54.95;28.83;;;;;;;1.76;76.04;101890.81;1794612;80;21126;-76
2021/11/13 05:27:32;;;;;;;48.42;27.77;;;;;;;1.75;76.14;101899.41;1794521;80;21413;-75
2021/11/13 05:29:59;;;;;;;53.58;30.05;;;;;;;1.75;76.28;101893.80;1794507;80;20934;-76
2021/11/13 05:32:27;;;;;;;55.03;33.85;;;;;;;1.77;76.56;101902.86;1794825;80;20931;-74
2021/11/13 05:34:54;;;;;;;54.23;31.65;;;;;;;1.79;76.76;101898.55;1795122;79;20919;-76
2021/11/13 05:37:20;;;;;;;51.73;30.40;;;;;;;1.81;76.70;101900.25;1794681;80;21138;-76
2021/11/13 05:39:49;;;;;;;56.18;33.85;;;;;;;1.83;76.84;101900.27;1794979;79;20935;-77
2021/11/13 05:42:16;;;;;;;59.38;32.95;;;;;;;1.86;76.89;101903.67;1794829;80;21587;-75
2021/11/13 05:44:43;;;;;;;61.35;35.73;;;;;;;1.91;76.80;101898.48;1795004;79;20859;-74
2021/11/13 05:47:11;;;;;;;63.87;38.85;;;;;;;1.95;76.76;101898.05;1791845;79;20896;-76
2021/11/13 05:49:38;;;;;;;57.43;33.15;;;;;;;2.01;76.78;101898.89;1789176;80;21148;-75
2021/11/13 05:52:07;;;;;;;55.00;31.75;;;;;;;2.14;77.05;101900.16;1789399;79;21013;-75
2021/11/13 05:54:34;;;;;;;70.05;38.28;;;;;;;2.27;76.96;101903.96;1789091;80;21065;-74
2021/11/13 05:57:01;;;;;;;76.25;42.10;;;;;;;2.39;77.04;101911.23;1789665;80;20860;-73
2021/11/13 05:59:28;;;;;;;93.55;46.00;;;;;;;2.48;77.01;101915.92;1789473;80;20892;-76
2021/11/13 06:01:55;;;;;;;61.35;34.03;;;;;;;2.58;76.76;101912.86;1789459;80;21100;-76
2021/11/13 06:04:22;;;;;;;84.07;47.50;;;;;;;2.67;76.52;101924.45;1789317;80;20923;-75
2021/11/13 06:06:49;;;;;;;59.50;34.33;;;;;;;2.71;76.45;101927.86;1789294;80;20935;-75
2021/11/13 06:09:16;;;;;;;107.87;58.60;;;;;;;2.76;76.34;101926.54;1789310;79;20978;-75
2021/11/13 06:11:42;;;;;;;106.35;64.30;;;;;;;2.79;76.42;101936.45;1789554;80;21379;-75
2021/11/13 06:14:10;;;;;;;66.75;38.60;;;;;;;2.85;76.51;101936.87;1789218;79;21229;-75
2021/11/13 06:16:37;;;;;;;83.00;39.90;;;;;;;2.91;76.76;101939.39;1788978;79;20927;-75
2021/11/13 06:19:03;;;;;;;66.87;38.33;;;;;;;3.04;76.87;101947.95;1789236;80;20863;-74
2021/11/13 06:21:31;;;;;;;64.97;32.63;;;;;;;3.13;77.04;101947.02;1789151;79;21418;-75
2021/11/13 06:23:59;;;;;;;42.15;23.73;;;;;;;3.23;77.03;101946.94;1789206;79;20987;-75
2021/11/13 06:26:25;;;;;;;41.95;23.95;;;;;;;3.35;76.94;101952.45;1789399;79;21107;-76
2021/11/13 06:28:52;;;;;;;39.83;24.07;;;;;;;3.45;76.77;101959.28;1789156;80;20921;-75
2021/11/13 06:31:19;;;;;;;38.63;23.73;;;;;;;3.55;76.61;101947.53;1789259;80;20975;-76
2021/11/13 06:33:46;;;;;;;40.55;24.45;;;;;;;3.65;76.41;101946.58;1789113;79;21063;-76
2021/11/13 06:36:13;;;;;;;40.28;23.95;;;;;;;3.74;76.28;101950.38;1789399;79;20947;-76
2021/11/13 06:38:40;;;;;;;41.50;24.63;;;;;;;3.81;76.27;101949.43;1789270;79;21126;-77
2021/11/13 06:41:07;;;;;;;47.98;28.60;;;;;;;3.91;76.25;101948.87;1789426;80;20935;-76
2021/11/13 06:43:34;;;;;;;69.20;41.48;;;;;;;4.02;76.21;101940.98;1789126;80;20926;-76
2021/11/13 06:46:01;;;;;;;60.50;33.95;;;;;;;4.13;76.20;101944.30;1789346;79;20946;-78
2021/11/13 06:48:28;;;;;;;61.55;36.23;;;;;;;4.24;76.02;101945.48;1789060;80;21002;-77
2021/11/13 06:50:55;;;;;;;51.98;30.10;;;;;;;4.34;75.87;101943.20;1789210;79;21184;-78
2021/11/13 06:53:22;;;;;;;49.50;26.60;;;;;;;4.43;75.66;101946.97;1789116;79;20875;-78
2021/11/13 06:55:49;;;;;;;42.10;25.35;;;;;;;4.49;75.49;101945.61;1788994;79;20864;-77
2021/11/13 06:58:17;;;;;;;31.35;18.80;;;;;;;4.56;75.41;101948.98;1789046;79;20986;-76
2021/11/13 07:00:44;;;;;;;32.83;21.20;;;;;;;4.64;75.34;101952.31;1789168;80;20939;-75
2021/11/13 07:03:13;;;;;;;31.93;18.70;;;;;;;4.69;75.42;101954.42;1788731;79;21166;-78
2021/11/13 07:05:41;;;;;;;32.38;19.10;;;;;;;4.76;75.45;101958.64;1789042;80;20892;-75
2021/11/13 07:08:08;;;;;;;30.30;19.60;;;;;;;4.84;75.57;101956.38;1789245;80;21550;-76
2021/11/13 07:10:37;;;;;;;30.02;18.70;;;;;;;4.92;75.52;101955.37;1788983;80;21532;-78
2021/11/13 07:13:03;;;;;;;35.88;19.35;;;;;;;4.99;75.47;101959.59;1789230;79;20852;-78
2021/11/13 07:15:33;;;;;;;31.52;19.05;;;;;;;5.07;75.33;101962.52;1789157;79;21154;-79
2021/11/13 07:18:02;;;;;;;27.82;17.25;;;;;;;5.15;75.23;101960.66;1789377;80;20948;-78
2021/11/13 07:20:31;;;;;;;27.42;16.93;;;;;;;5.23;75.12;101956.66;1788988;80;20958;-79
2021/11/13 07:22:59;;;;;;;26.90;18.73;;;;;;;5.34;74.86;101956.03;1789216;79;20896;-78
2021/11/13 07:25:29;;;;;;;24.92;15.70;;;;;;;5.42;74.66;101955.89;1788667;80;20967;-77
2021/11/13 07:28:01;;;;;;;25.37;15.38;;;;;;;5.50;74.43;101952.73;1789175;80;22021;-79
2021/11/13 07:30:25;;;;;;;26.15;16.90;;;;;;;5.57;74.31;101950.42;1788253;80;20891;-80
2021/11/13 07:32:52;;;;;;;25.02;15.20;;;;;;;5.65;74.15;101952.88;1789088;80;21465;-78
2021/11/13 07:35:19;;;;;;;25.90;16.23;;;;;;;5.71;73.98;101951.02;1788986;79;20958;-78
2021/11/13 07:37:46;;;;;;;28.90;17.48;;;;;;;5.78;73.71;101953.95;1789181;79;20891;-79
2021/11/13 07:40:13;;;;;;;21.80;15.83;;;;;;;5.83;73.45;101959.07;1789142;79;21117;-78
2021/11/13 07:42:40;;;;;;;24.32;15.72;;;;;;;5.89;73.27;101961.98;1789257;80;20887;-80
2021/11/13 07:45:08;;;;;;;24.65;15.93;;;;;;;5.95;72.91;101959.30;1789222;80;21480;-80
2021/11/13 07:47:37;;;;;;;24.25;15.78;;;;;;;5.98;72.52;101958.81;1791402;80;20943;-79
2021/11/13 07:50:04;;;;;;;25.15;15.30;;;;;;;6.00;72.24;101968.76;1794798;79;20914;-81
2021/11/13 07:52:31;;;;;;;26.35;17.10;;;;;;;6.04;72.16;101968.23;1794797;80;21172;-78
2021/11/13 07:54:58;;;;;;;27.10;17.30;;;;;;;6.10;72.03;101973.33;1794949;79;21494;-78
2021/11/13 07:57:25;;;;;;;28.85;18.40;;;;;;;6.14;71.73;101972.39;1794870;79;20874;-78
2021/11/13 07:59:52;;;;;;;24.37;16.00;;;;;;;6.18;71.69;101980.56;1794806;80;20891;-79
2021/11/13 08:02:19;;;;;;;24.65;16.77;;;;;;;6.21;71.65;101991.36;1766221;80;20939;-81
2021/11/13 08:04:46;;;;;;;28.27;16.15;;;;;;;6.25;71.53;101994.32;1795002;79;21125;-78
2021/11/13 08:07:13;;;;;;;25.55;17.50;;;;;;;6.27;71.30;101999.06;1794593;79;20896;-79
2021/11/13 08:09:40;;;;;;;29.80;16.85;;;;;;;6.32;71.20;102008.08;1794797;80;20891;-80
2021/11/13 08:12:08;;;;;;;28.73;17.73;;;;;;;6.35;71.28;101997.59;1794530;79;20903;-80
2021/11/13 08:14:35;;;;;;;28.05;17.50;;;;;;;6.39;70.99;102000.09;1794427;79;20879;-78
2021/11/13 08:17:04;;;;;;;27.07;18.07;;;;;;;6.44;70.94;101998.70;1794625;79;20836;-80
2021/11/13 08:19:32;;;;;;;28.17;17.55;;;;;;;6.50;70.78;101999.88;1794981;79;20832;-80
2021/11/13 08:22:00;;;;;;;28.05;17.15;;;;;;;6.55;70.56;102003.24;1794582;80;20868;-81
2021/11/13 08:24:27;;;;;;;27.85;17.80;;;;;;;6.62;70.53;102001.36;1795098;80;20980;-76
2021/11/13 08:26:55;;;;;;;23.52;15.65;;;;;;;6.67;70.46;102000.84;1794514;79;21498;-77
2021/11/13 08:29:25;;;;;;;23.95;16.73;;;;;;;6.74;70.24;101998.97;1794348;79;22001;-77
2021/11/13 08:31:52;;;;;;;21.68;16.35;;;;;;;6.81;70.21;101995.33;1794848;80;21016;-78
2021/11/13 08:34:20;;;;;;;20.97;15.93;;;;;;;6.88;70.09;101995.59;1794655;80;21166;-75
2021/11/13 08:36:47;;;;;;;22.95;15.78;;;;;;;6.96;69.70;101989.77;1794573;80;20938;-77
2021/11/13 08:39:15;;;;;;;22.20;14.65;;;;;;;7.01;69.50;101987.05;1794724;79;21317;-78
2021/11/13 08:41:42;;;;;;;24.50;16.25;;;;;;;7.04;69.22;101985.20;1794690;79;21146;-76
2021/11/13 08:44:09;;;;;;;25.25;16.90;;;;;;;7.08;68.97;101981.25;1794493;79;20899;-77
2021/11/13 08:46:36;;;;;;;24.50;15.90;;;;;;;7.11;68.74;101980.70;1794832;79;21462;-75
2021/11/13 08:49:03;;;;;;;21.77;16.00;;;;;;;7.12;68.68;101980.28;1794612;79;21049;-76
2021/11/13 08:51:30;;;;;;;25.15;15.43;;;;;;;7.15;68.57;101979.74;1794565;80;21488;-78
2021/11/13 08:53:59;;;;;;;24.23;15.72;;;;;;;7.18;68.47;101986.64;1793884;79;21431;-77
2021/11/13 08:56:29;;;;;;;20.72;14.10;;;;;;;7.20;68.01;101983.55;1794940;80;20971;-77
2021/11/13 08:58:57;;;;;;;22.13;15.45;;;;;;;7.18;67.98;101990.13;1794569;80;20951;-78
2021/11/13 09:01:26;;;;;;;19.37;14.78;;;;;;;7.18;68.09;101989.25;1794514;80;21389;-74
2021/11/13 09:03:54;;;;;;;24.50;15.93;;;;;;;7.20;68.15;101993.56;1794599;80;20887;-72
2021/11/13 09:06:25;;;;;;;22.70;16.05;;;;;;;7.25;68.14;101989.53;1794613;80;20848;-73
2021/11/13 09:08:52;;;;;;;22.55;15.68;;;;;;;7.31;67.99;101988.52;1794933;79;20879;-80
2021/11/13 09:11:22;;;;;;;23.27;15.53;;;;;;;7.34;67.90;101988.00;1794761;79;20872;-76
2021/11/13 09:13:50;;;;;;;23.50;15.55;;;;;;;7.36;67.67;101990.55;1794720;80;20856;-75
2021/11/13 09:16:18;;;;;;;30.48;16.62;;;;;;;7.37;67.58;101984.00;1795088;79;20986;-82
2021/11/13 09:18:47;;;;;;;22.37;14.90;;;;;;;7.40;67.77;101986.98;1794754;80;22300;-73
2021/11/13 09:21:14;;;;;;;21.20;12.82;;;;;;;7.44;67.62;101982.94;1795362;79;21456;-75
2021/11/13 09:23:42;;;;;;;24.60;15.58;;;;;;;7.51;67.42;101981.49;1794913;79;20891;-74
2021/11/13 09:26:11;;;;;;;23.35;14.87;;;;;;;7.57;67.17;101990.48;1764361;80;20994;-75
2021/11/13 09:28:39;;;;;;;25.15;15.13;;;;;;;7.63;67.15;101982.05;1794710;79;20943;-75
2021/11/13 09:31:06;;;;;;;23.70;14.45;;;;;;;7.71;67.18;101980.98;1795020;80;22008;-74
2021/11/13 09:33:35;;;;;;;26.62;15.05;;;;;;;7.79;67.06;101982.95;1794521;79;20836;-74
2021/11/13 09:36:04;;;;;;;21.70;15.15;;;;;;;7.86;66.61;101980.13;1794720;79;21429;-74
2021/11/13 09:38:33;;;;;;;26.23;16.27;;;;;;;7.88;66.19;101986.63;1794758;80;21613;-75
2021/11/13 09:41:03;;;;;;;22.87;15.00;;;;;;;7.90;66.08;101986.14;1795073;80;21376;-78
2021/11/13 09:43:30;;;;;;;22.35;15.50;;;;;;;7.95;65.96;101978.17;1794620;79;21133;-78
2021/11/13 09:45:59;;;;;;;21.77;15.80;;;;;;;7.96;65.91;101976.84;1794605;80;21400;-74
2021/11/13 09:48:27;;;;;;;24.55;16.17;;;;;;;7.96;65.92;101978.56;1794750;79;20966;-74
2021/11/13 09:50:55;;;;;;;23.65;15.72;;;;;;;8.03;65.88;101981.45;1766734;80;20899;-74
2021/11/13 09:53:23;;;;;;;25.12;16.42;;;;;;;8.25;65.82;101986.47;1794306;80;20891;-73
2021/11/13 09:55:50;;;;;;;22.67;14.60;;;;;;;8.71;65.81;101990.83;1794863;79;21131;-73
2021/11/13 09:58:17;;;;;;;19.62;14.45;;;;;;;9.36;64.91;101992.30;1794599;79;20970;-74
2021/11/13 10:00:44;;;;;;;20.85;14.43;;;;;;;10.15;62.41;101980.80;1794782;79;20898;-76
2021/11/13 10:03:18;;;;;;;20.12;14.75;;;;;;;10.96;59.61;101982.16;1794906;79;20926;-80
2021/11/13 10:05:40;;;;;;;19.82;14.68;;;;;;;11.76;57.87;101983.23;1793459;79;21444;-77
2021/11/13 10:08:08;;;;;;;17.87;14.03;;;;;;;12.46;55.43;101981.08;1794769;80;21567;-75
2021/11/13 10:10:38;;;;;;;20.85;14.15;;;;;;;12.96;53.50;101985.28;1766227;80;20856;-75
2021/11/13 10:13:32;;;;;;;17.15;13.58;;;;;;;13.37;52.51;101977.14;1794800;80;21511;-75
2021/11/13 10:16:11;;;;;;;18.02;13.45;;;;;;;13.73;51.06;101976.68;1794873;79;20919;-74
2021/11/13 10:18:46;;;;;;;19.65;13.70;;;;;;;14.09;50.32;101975.20;1795023;79;21018;-78
2021/11/13 10:21:17;;;;;;;19.03;14.73;;;;;;;14.32;49.01;101980.59;1795096;80;21144;-79
2021/11/13 10:23:59;;;;;;;21.40;14.40;;;;;;;14.29;48.77;101976.78;1794804;79;21531;-76
2021/11/13 10:26:31;;;;;;;18.07;13.95;;;;;;;14.28;48.47;101978.58;1794732;79;20927;-74
2021/11/13 10:29:02;;;;;;;22.17;12.78;;;;;;;14.17;48.66;101978.77;1794906;80;21033;-76
2021/11/13 10:31:33;;;;;;;20.82;14.65;;;;;;;14.19;48.70;101972.48;1794685;79;20931;-75
2021/11/13 10:34:14;;;;;;;21.77;14.47;;;;;;;14.40;48.36;101984.97;1794600;79;21181;-76
2021/11/13 10:36:57;;;;;;;18.75;15.75;;;;;;;14.54;47.53;101978.09;1794065;79;20855;-76
2021/11/13 10:39:31;;;;;;;16.48;14.05;;;;;;;14.62;47.70;101971.95;1794603;80;20899;-72
2021/11/13 10:42:02;;;;;;;24.27;16.20;;;;;;;15.01;46.45;101969.34;1794565;79;20899;-73
2021/11/13 10:44:37;;;;;;;17.92;12.80;;;;;;;15.01;46.45;101969.34;1793881;79;21025;-73
2021/11/13 10:47:18;;;;;;;17.20;13.78;;;;;;;15.17;46.38;101971.48;1794820;79;21138;-75
2021/11/13 10:49:46;;;;;;;19.95;14.25;;;;;;;15.41;45.94;101970.53;1794158;80;20990;-73
2021/11/13 10:52:13;;;;;;;18.73;14.35;;;;;;;15.41;45.17;101969.20;1794783;79;20895;-75
2021/11/13 10:54:49;;;;;;;20.65;14.60;;;;;;;15.19;45.41;101957.72;1794912;79;21460;-76
2021/11/13 10:57:28;;;;;;;18.85;15.70;;;;;;;15.12;45.80;101959.02;1794653;79;21009;-75
2021/11/13 10:59:55;;;;;;;19.42;13.78;;;;;;;14.95;45.93;101957.33;1794683;80;21090;-75
2021/11/13 11:02:23;;;;;;;22.17;14.40;;;;;;;14.42;46.59;101959.83;1794611;80;20934;-74
2021/11/13 11:04:50;;;;;;;22.05;14.13;;;;;;;14.42;46.59;101959.83;1794566;79;20899;-75
2021/11/13 11:07:21;;;;;;;19.67;13.83;;;;;;;14.14;47.16;101952.54;1794538;79;21475;-77
2021/11/13 11:10:08;;;;;;;20.75;13.85;;;;;;;13.93;47.71;101958.50;1794794;79;20938;-73
2021/11/13 11:12:37;;;;;;;19.37;13.30;;;;;;;13.68;47.88;101959.78;1794404;79;21348;-72
2021/11/13 11:15:09;;;;;;;16.52;13.53;;;;;;;13.34;48.51;101960.19;1794462;80;21341;-69
2021/11/13 11:17:38;;;;;;;19.82;13.30;;;;;;;13.11;48.85;101955.16;1794712;79;21446;-71
2021/11/13 11:20:13;;;;;;;15.43;11.90;;;;;;;12.92;49.27;101954.75;1794315;80;20935;-73
2021/11/13 11:22:40;;;;;;;20.57;13.95;;;;;;;12.64;49.67;101954.73;1794528;79;21591;-73
2021/11/13 11:25:11;;;;;;;17.75;11.70;;;;;;;12.37;50.38;101957.35;1793926;80;21155;-72
2021/11/13 11:27:42;;;;;;;16.55;11.22;;;;;;;12.19;50.83;101953.79;1794121;79;20942;-72